createdAt,value
2019-01-08T00:00:57.465Z,1.63
2019-01-08T00:03:26.109Z,1.71
2019-01-08T00:05:54.755Z,1.71
2019-01-08T00:08:23.402Z,1.76
2019-01-08T00:10:52.059Z,1.72
2019-01-08T00:13:20.702Z,1.76
2019-01-08T00:15:49.638Z,1.73
2019-01-08T00:18:18.302Z,1.73
2019-01-08T00:20:46.936Z,1.67
2019-01-08T00:23:15.589Z,1.74
2019-01-08T00:25:44.229Z,1.72
2019-01-08T00:28:12.899Z,1.77
2019-01-08T00:30:41.542Z,1.77
2019-01-08T00:33:10.192Z,1.86
2019-01-08T00:35:38.833Z,1.88
2019-01-08T00:38:07.471Z,1.90
2019-01-08T00:40:36.115Z,1.94
2019-01-08T00:43:04.831Z,1.98
2019-01-08T00:45:33.475Z,1.98
2019-01-08T00:48:02.143Z,1.92
2019-01-08T00:50:30.796Z,1.92
2019-01-08T00:52:59.426Z,1.87
2019-01-08T00:55:29.188Z,1.73
2019-01-08T00:57:57.875Z,1.60
2019-01-08T01:00:26.508Z,1.49
2019-01-08T01:02:55.154Z,1.52
2019-01-08T01:05:23.891Z,1.47
2019-01-08T01:07:52.525Z,1.49
2019-01-08T01:10:21.174Z,1.45
2019-01-08T01:12:49.814Z,1.44
2019-01-08T01:15:18.481Z,1.30
2019-01-08T01:17:47.129Z,1.35
2019-01-08T01:20:15.750Z,1.31
2019-01-08T01:22:44.524Z,1.25
2019-01-08T01:25:13.170Z,1.29
2019-01-08T01:27:41.801Z,1.25
2019-01-08T01:30:11.407Z,1.19
2019-01-08T01:32:40.072Z,1.19
2019-01-08T01:35:08.710Z,1.14
2019-01-08T01:37:37.354Z,1.16
2019-01-08T01:40:06.092Z,1.15
2019-01-08T01:42:35.800Z,1.10
2019-01-08T01:45:04.592Z,1.06
2019-01-08T01:47:33.254Z,1.06
2019-01-08T01:50:01.896Z,1.02
2019-01-08T01:52:30.547Z,1.06
2019-01-08T01:54:59.191Z,1.01
2019-01-08T01:57:27.837Z,0.96
2019-01-08T01:59:56.467Z,0.98
2019-01-08T02:02:25.127Z,0.97
2019-01-08T02:04:54.447Z,1.02
2019-01-08T02:07:23.083Z,0.93
2019-01-08T02:09:51.799Z,0.89
2019-01-08T02:12:20.436Z,0.90
2019-01-08T02:14:49.063Z,0.96
2019-01-08T02:17:17.719Z,0.95
2019-01-08T02:19:46.357Z,0.94
2019-01-08T02:22:15.314Z,0.95
2019-01-08T02:24:43.993Z,0.94
2019-01-08T02:27:12.636Z,0.97
2019-01-08T02:29:41.272Z,0.98
2019-01-08T02:32:09.925Z,1.02
2019-01-08T02:34:38.563Z,1.07
2019-01-08T02:37:07.212Z,1.08
2019-01-08T02:39:35.861Z,1.10
2019-01-08T02:42:04.481Z,1.13
2019-01-08T02:44:33.537Z,1.05
2019-01-08T02:47:02.493Z,1.11
2019-01-08T02:49:31.427Z,1.09
2019-01-08T02:52:00.085Z,1.17
2019-01-08T02:54:29.128Z,1.12
2019-01-08T02:56:57.867Z,1.14
2019-01-08T02:59:26.531Z,1.16
2019-01-08T03:01:55.171Z,1.09
2019-01-08T03:04:23.815Z,1.07
2019-01-08T03:06:52.451Z,1.11
2019-01-08T03:09:21.188Z,1.00
2019-01-08T03:11:49.823Z,1.05
2019-01-08T03:14:18.733Z,1.08
2019-01-08T03:16:47.379Z,1.12
2019-01-08T03:19:16.029Z,1.03
2019-01-08T03:21:44.661Z,1.09
2019-01-08T03:24:13.390Z,1.08
2019-01-08T03:26:42.024Z,1.12
2019-01-08T03:29:10.658Z,1.00
2019-01-08T03:31:39.387Z,1.05
2019-01-08T03:34:08.022Z,0.95
2019-01-08T03:36:36.658Z,0.93
2019-01-08T03:39:05.810Z,0.98
2019-01-08T03:41:34.463Z,1.05
2019-01-08T03:44:03.106Z,1.05
2019-01-08T03:46:31.788Z,1.07
2019-01-08T03:49:00.429Z,1.09
2019-01-08T03:51:30.143Z,1.05
2019-01-08T03:53:58.786Z,0.96
2019-01-08T03:56:27.415Z,1.01
2019-01-08T03:58:56.049Z,1.10
2019-01-08T04:01:24.695Z,1.17
2019-01-08T04:03:53.603Z,1.14
2019-01-08T04:06:22.247Z,1.16
2019-01-08T04:08:51.183Z,1.16
2019-01-08T04:11:19.819Z,1.19
2019-01-08T04:13:48.451Z,1.10
2019-01-08T04:16:17.104Z,1.16
2019-01-08T04:18:45.729Z,1.28
2019-01-08T04:21:14.608Z,1.31
2019-01-08T04:23:43.280Z,1.25
2019-01-08T04:26:11.944Z,1.32
2019-01-08T04:28:40.574Z,1.24
2019-01-08T04:31:09.536Z,1.38
2019-01-08T04:33:40.086Z,1.32
2019-01-08T04:36:09.142Z,1.38
2019-01-08T04:38:37.786Z,1.38
2019-01-08T04:41:06.428Z,1.44
2019-01-08T04:43:35.068Z,1.39
2019-01-08T04:46:03.738Z,1.39
2019-01-08T04:48:32.375Z,1.44
2019-01-08T04:51:01.008Z,1.44
2019-01-08T04:53:29.892Z,1.35
2019-01-08T04:55:58.533Z,1.31
2019-01-08T04:58:27.167Z,1.28
2019-01-08T05:00:56.087Z,1.24
2019-01-08T05:03:24.725Z,1.23
2019-01-08T05:05:54.441Z,1.18
2019-01-08T05:08:23.093Z,1.29
2019-01-08T05:10:51.728Z,1.23
2019-01-08T05:13:20.367Z,1.21
2019-01-08T05:15:49.017Z,1.18
2019-01-08T05:18:17.652Z,1.18
2019-01-08T05:20:46.275Z,1.24
2019-01-08T05:23:14.918Z,1.14
2019-01-08T05:25:43.629Z,1.18
2019-01-08T05:28:12.265Z,1.13
2019-01-08T05:30:41.267Z,1.09
2019-01-08T05:33:09.898Z,1.13
2019-01-08T05:35:38.534Z,1.11
2019-01-08T05:38:07.191Z,1.14
2019-01-08T05:40:35.822Z,1.16
2019-01-08T05:43:04.458Z,1.25
2019-01-08T05:45:33.112Z,1.08
2019-01-08T05:48:01.978Z,1.12
2019-01-08T05:50:30.605Z,1.12
2019-01-08T05:52:59.270Z,1.19
2019-01-08T05:55:27.978Z,1.12
2019-01-08T05:57:56.628Z,1.22
2019-01-08T06:00:25.304Z,1.24
2019-01-08T06:02:53.947Z,1.21
2019-01-08T06:05:22.581Z,1.36
2019-01-08T06:07:51.375Z,1.36
2019-01-08T06:10:20.033Z,1.40
2019-01-08T06:12:48.680Z,1.43
2019-01-08T06:15:17.319Z,1.41
2019-01-08T06:17:46.411Z,1.39
2019-01-08T06:20:15.035Z,1.57
2019-01-08T06:22:43.691Z,1.75
2019-01-08T06:25:12.335Z,1.79
2019-01-08T06:27:40.991Z,1.76
2019-01-08T06:30:09.660Z,1.86
2019-01-08T06:32:38.307Z,1.86
2019-01-08T06:35:06.938Z,1.90
2019-01-08T06:37:35.883Z,1.90
2019-01-08T06:40:04.804Z,1.92
2019-01-08T06:42:33.449Z,1.88
2019-01-08T06:45:02.101Z,1.87
2019-01-08T06:47:31.077Z,1.79
2019-01-08T06:49:59.720Z,1.80
2019-01-08T06:52:28.392Z,1.83
2019-01-08T06:54:57.027Z,1.80
2019-01-08T06:57:25.666Z,1.86
2019-01-08T06:59:54.319Z,1.83
2019-01-08T07:02:22.952Z,1.83
2019-01-08T07:04:51.596Z,1.85
2019-01-08T07:07:20.232Z,1.86
2019-01-08T07:09:48.872Z,1.82
2019-01-08T07:12:17.856Z,1.86
2019-01-08T07:14:46.592Z,1.88
2019-01-08T07:17:15.695Z,1.87
2019-01-08T07:19:44.335Z,1.83
2019-01-08T07:22:12.989Z,1.78
2019-01-08T07:24:41.743Z,1.73
2019-01-08T07:27:16.329Z,1.77
2019-01-08T07:29:41.039Z,1.77
2019-01-08T07:32:09.677Z,1.87
2019-01-08T07:34:38.325Z,1.82
2019-01-08T07:37:06.982Z,1.82
2019-01-08T07:39:35.640Z,1.82
2019-01-08T07:42:04.279Z,1.81
2019-01-08T07:44:32.931Z,1.75
2019-01-08T07:47:01.575Z,1.78
2019-01-08T07:49:30.562Z,1.81
2019-01-08T07:51:59.287Z,1.83
2019-01-08T07:54:27.917Z,1.87
2019-01-08T07:56:56.553Z,1.93
2019-01-08T07:59:25.210Z,1.94
2019-01-08T08:01:53.870Z,1.93
2019-01-08T08:04:22.834Z,1.98
2019-01-08T08:06:51.904Z,1.99
2019-01-08T08:09:20.544Z,2.01
2019-01-08T08:11:49.174Z,2.04
2019-01-08T08:14:17.826Z,2.01
2019-01-08T08:16:46.454Z,1.99
2019-01-08T08:19:15.094Z,2.05
2019-01-08T08:21:43.758Z,2.12
2019-01-08T08:24:12.407Z,2.18
2019-01-08T08:26:41.045Z,2.21
2019-01-08T08:29:09.696Z,2.24
2019-01-08T08:31:38.323Z,2.23
2019-01-08T08:34:06.958Z,2.31
2019-01-08T08:36:35.603Z,2.40
2019-01-08T08:39:05.188Z,2.41
2019-01-08T08:41:33.995Z,2.40
2019-01-08T08:44:02.638Z,2.40
2019-01-08T08:46:31.275Z,2.47
2019-01-08T08:48:59.911Z,2.52
2019-01-08T08:51:28.570Z,2.56
2019-01-08T08:53:57.218Z,2.58
2019-01-08T08:56:25.848Z,2.79
2019-01-08T08:58:54.496Z,2.96
2019-01-08T09:01:23.137Z,2.87
2019-01-08T09:03:52.058Z,2.87
2019-01-08T09:06:20.722Z,3.00
2019-01-08T09:08:49.348Z,3.04
2019-01-08T09:11:17.979Z,2.95
2019-01-08T09:13:46.894Z,3.05
2019-01-08T09:16:15.522Z,3.11
2019-01-08T09:18:44.162Z,3.17
2019-01-08T09:21:12.814Z,3.04
2019-01-08T09:23:41.451Z,3.06
2019-01-08T09:26:10.088Z,3.06
2019-01-08T09:28:38.726Z,3.11
2019-01-08T09:31:15.094Z,3.24
2019-01-08T09:33:38.555Z,3.28
2019-01-08T09:36:07.325Z,3.31
2019-01-08T09:38:35.963Z,3.48
2019-01-08T09:41:04.616Z,3.55
2019-01-08T09:43:33.551Z,3.94
2019-01-08T09:46:02.186Z,3.92
2019-01-08T09:48:31.839Z,3.93
2019-01-08T09:51:00.475Z,3.82
2019-01-08T09:53:29.118Z,3.93
2019-01-08T09:55:57.781Z,3.95
2019-01-08T09:58:26.466Z,3.89
2019-01-08T10:00:55.107Z,4.08
2019-01-08T10:03:23.757Z,4.25
2019-01-08T10:05:52.406Z,4.09
2019-01-08T10:08:21.052Z,3.98
2019-01-08T10:10:49.708Z,3.95
2019-01-08T10:13:18.392Z,3.81
2019-01-08T10:15:47.026Z,3.80
2019-01-08T10:18:15.682Z,4.00
2019-01-08T10:20:44.392Z,4.20
2019-01-08T10:23:13.326Z,4.31
2019-01-08T10:25:42.388Z,4.26
2019-01-08T10:28:11.198Z,4.38
2019-01-08T10:30:39.852Z,4.42
2019-01-08T10:33:08.496Z,4.34
2019-01-08T10:35:37.136Z,4.31
2019-01-08T10:38:05.838Z,4.23
2019-01-08T10:40:34.491Z,4.44
2019-01-08T10:43:03.131Z,5.04
2019-01-08T10:45:31.774Z,5.25
2019-01-08T10:48:00.771Z,4.94
2019-01-08T10:50:30.483Z,4.87
2019-01-08T10:52:59.193Z,4.84
2019-01-08T10:55:27.999Z,4.84
2019-01-08T10:57:56.641Z,4.94
2019-01-08T11:00:25.355Z,5.43
2019-01-08T11:02:54.363Z,5.83
2019-01-08T11:05:23.011Z,6.18
2019-01-08T11:07:51.644Z,6.02
2019-01-08T11:10:20.380Z,5.67
2019-01-08T11:12:49.609Z,5.91
2019-01-08T11:15:18.402Z,5.83
2019-01-08T11:17:47.064Z,6.31
2019-01-08T11:20:15.740Z,5.78
2019-01-08T11:22:44.400Z,5.45
2019-01-08T11:25:13.058Z,5.09
2019-01-08T11:27:41.704Z,5.03
2019-01-08T11:30:10.322Z,4.97
2019-01-08T11:32:38.980Z,4.84
2019-01-08T11:35:07.612Z,4.81
2019-01-08T11:37:36.252Z,4.76
2019-01-08T11:40:05.172Z,4.73
2019-01-08T11:42:33.814Z,4.64
2019-01-08T11:45:02.531Z,4.66
2019-01-08T11:47:31.515Z,4.60
2019-01-08T11:50:00.267Z,4.55
2019-01-08T11:52:29.082Z,4.59
2019-01-08T11:54:57.742Z,4.59
2019-01-08T11:57:27.563Z,4.49
2019-01-08T11:59:56.195Z,4.54
2019-01-08T12:02:24.846Z,4.50
2019-01-08T12:04:53.840Z,4.45
2019-01-08T12:07:30.961Z,4.48
2019-01-08T12:09:52.827Z,4.39
2019-01-08T12:12:21.667Z,4.44
2019-01-08T12:14:50.318Z,4.37
2019-01-08T12:17:18.978Z,4.42
2019-01-08T12:19:47.681Z,4.42
2019-01-08T12:22:16.320Z,4.36
2019-01-08T12:24:44.963Z,4.46
2019-01-08T12:27:14.078Z,4.47
2019-01-08T12:29:42.722Z,4.46
2019-01-08T12:32:11.444Z,4.44
2019-01-08T12:34:40.174Z,4.53
2019-01-08T12:37:08.868Z,4.44
2019-01-08T12:39:38.056Z,4.40
2019-01-08T12:42:07.060Z,4.43
2019-01-08T12:44:35.700Z,4.36
2019-01-08T12:47:04.784Z,4.35
2019-01-08T12:49:33.509Z,4.30
2019-01-08T12:52:02.157Z,4.27
2019-01-08T12:54:30.830Z,4.25
2019-01-08T12:56:59.607Z,4.23
2019-01-08T12:59:28.264Z,4.21
2019-01-08T13:01:56.966Z,4.22
2019-01-08T13:04:25.731Z,4.20
2019-01-08T13:06:54.372Z,4.21
2019-01-08T13:09:23.019Z,4.16
2019-01-08T13:11:51.655Z,4.12
2019-01-08T13:14:21.364Z,4.15
2019-01-08T13:16:50.030Z,4.06
2019-01-08T13:19:18.672Z,3.98
2019-01-08T13:21:47.534Z,3.98
2019-01-08T13:24:16.502Z,3.96
2019-01-08T13:26:45.134Z,3.94
2019-01-08T13:29:13.772Z,3.95
2019-01-08T13:31:42.500Z,4.01
2019-01-08T13:34:11.632Z,3.98
2019-01-08T13:36:40.258Z,4.01
2019-01-08T13:39:09.306Z,4.09
2019-01-08T13:41:37.967Z,4.16
2019-01-08T13:44:06.604Z,4.20
2019-01-08T13:46:35.264Z,4.29
2019-01-08T13:49:03.972Z,4.34
2019-01-08T13:51:32.940Z,4.30
2019-01-08T13:54:02.471Z,4.27
2019-01-08T13:56:31.168Z,4.29
2019-01-08T13:58:59.803Z,4.27
2019-01-08T14:01:29.821Z,4.31
2019-01-08T14:03:58.514Z,4.27
2019-01-08T14:06:27.169Z,4.29
2019-01-08T14:08:55.807Z,4.28
2019-01-08T14:11:24.448Z,4.26
2019-01-08T14:13:53.069Z,4.24
2019-01-08T14:16:22.181Z,4.26
2019-01-08T14:18:50.847Z,4.28
2019-01-08T14:21:19.475Z,4.29
2019-01-08T14:23:48.162Z,4.27
2019-01-08T14:26:16.837Z,4.30
2019-01-08T14:28:45.936Z,4.30
2019-01-08T14:31:14.584Z,4.31
2019-01-08T14:33:44.094Z,4.27
2019-01-08T14:36:12.912Z,4.27
2019-01-08T14:38:41.579Z,4.26
2019-01-08T14:41:10.372Z,4.18
2019-01-08T14:43:39.028Z,4.15
2019-01-08T14:46:07.712Z,4.09
2019-01-08T14:48:36.370Z,4.08
2019-01-08T14:51:05.052Z,4.08
2019-01-08T14:53:33.723Z,4.07
2019-01-08T14:56:02.671Z,4.02
2019-01-08T14:58:31.311Z,4.07
2019-01-08T15:00:59.991Z,4.02
2019-01-08T15:03:28.663Z,4.01
2019-01-08T15:05:57.299Z,4.01
2019-01-08T15:08:26.015Z,3.98
2019-01-08T15:10:54.690Z,3.99
2019-01-08T15:13:23.331Z,3.99
2019-01-08T15:15:51.985Z,4.01
2019-01-08T15:18:20.624Z,4.01
2019-01-08T15:20:49.541Z,3.99
2019-01-08T15:23:18.254Z,3.95
2019-01-08T15:25:46.900Z,3.96
2019-01-08T15:28:15.546Z,3.88
2019-01-08T15:30:44.196Z,3.89
2019-01-08T15:33:12.822Z,3.87
2019-01-08T15:35:41.468Z,3.90
2019-01-08T15:38:10.182Z,3.90
2019-01-08T15:40:38.825Z,3.85
2019-01-08T15:43:07.460Z,3.87
2019-01-08T15:45:36.116Z,3.85
2019-01-08T15:48:05.362Z,3.87
2019-01-08T15:50:34.166Z,3.83
2019-01-08T15:53:02.868Z,3.80
2019-01-08T15:55:31.524Z,3.80
2019-01-08T15:58:00.151Z,3.74
2019-01-08T16:00:28.809Z,3.69
2019-01-08T16:02:57.461Z,3.66
2019-01-08T16:05:26.079Z,3.63
2019-01-08T16:07:55.203Z,3.57
2019-01-08T16:10:23.919Z,3.52
2019-01-08T16:12:52.562Z,3.46
2019-01-08T16:15:21.215Z,3.44
2019-01-08T16:17:49.841Z,3.43
2019-01-08T16:20:18.474Z,3.37
2019-01-08T16:22:47.123Z,3.34
2019-01-08T16:25:15.769Z,3.31
2019-01-08T16:27:45.146Z,3.29
2019-01-08T16:30:13.787Z,3.30
2019-01-08T16:32:42.424Z,3.30
2019-01-08T16:35:11.054Z,3.31
2019-01-08T16:37:40.086Z,3.31
2019-01-08T16:40:09.074Z,3.32
2019-01-08T16:42:37.715Z,3.31
2019-01-08T16:45:06.438Z,3.33
2019-01-08T16:47:35.058Z,3.34
2019-01-08T16:50:03.697Z,3.37
2019-01-08T16:52:32.376Z,3.37
2019-01-08T16:55:01.026Z,3.35
2019-01-08T16:57:30.047Z,3.38
2019-01-08T16:59:58.824Z,3.40
2019-01-08T17:02:27.594Z,3.38
2019-01-08T17:04:56.423Z,3.36
2019-01-08T17:07:26.153Z,3.36
2019-01-08T17:09:54.862Z,3.37
2019-01-08T17:12:23.507Z,3.36
2019-01-08T17:14:53.298Z,3.37
2019-01-08T17:17:21.948Z,3.35
2019-01-08T17:19:50.615Z,3.36
2019-01-08T17:22:19.339Z,3.35
2019-01-08T17:24:48.003Z,3.33
2019-01-08T17:27:16.707Z,3.36
2019-01-08T17:29:45.384Z,3.36
2019-01-08T17:32:14.383Z,3.36
2019-01-08T17:34:43.019Z,3.31
2019-01-08T17:37:11.970Z,3.32
2019-01-08T17:39:40.620Z,3.29
2019-01-08T17:42:09.618Z,3.28
2019-01-08T17:44:38.306Z,3.30
2019-01-08T17:47:06.954Z,3.33
2019-01-08T17:49:35.898Z,3.33
2019-01-08T17:52:04.685Z,3.36
2019-01-08T17:54:33.324Z,3.36
2019-01-08T17:57:01.979Z,3.37
2019-01-08T17:59:30.632Z,3.37
2019-01-08T18:02:00.904Z,3.40
2019-01-08T18:04:29.846Z,3.35
2019-01-08T18:06:58.503Z,3.38
2019-01-08T18:09:27.468Z,3.38
2019-01-08T18:11:56.128Z,3.39
2019-01-08T18:14:24.883Z,3.38
2019-01-08T18:16:54.839Z,3.40
2019-01-08T18:19:23.782Z,3.41
2019-01-08T18:21:52.443Z,3.41
2019-01-08T18:24:21.155Z,3.44
2019-01-08T18:26:49.990Z,3.48
2019-01-08T18:29:19.089Z,3.40
2019-01-08T18:31:47.735Z,3.38
2019-01-08T18:34:16.781Z,3.40
2019-01-08T18:36:45.414Z,3.38
2019-01-08T18:39:14.066Z,3.40
2019-01-08T18:41:43.006Z,3.38
2019-01-08T18:44:11.733Z,3.32
2019-01-08T18:46:41.561Z,3.35
2019-01-08T18:49:10.227Z,3.32
2019-01-08T18:51:38.956Z,3.28
2019-01-08T18:54:08.682Z,3.25
2019-01-08T18:56:37.346Z,3.24
2019-01-08T18:59:06.106Z,3.22
2019-01-08T19:01:34.992Z,3.18
2019-01-08T19:04:03.655Z,3.20
2019-01-08T19:06:32.306Z,3.19
2019-01-08T19:09:19.049Z,3.17
2019-01-08T19:11:47.818Z,3.21
2019-01-08T19:14:17.252Z,3.17
2019-01-08T19:16:45.928Z,3.16
2019-01-08T19:19:14.845Z,3.13
2019-01-08T19:21:43.925Z,3.12
2019-01-08T19:24:12.691Z,3.15
2019-01-08T19:26:41.675Z,3.13
2019-01-08T19:29:10.411Z,3.07
2019-01-08T19:31:40.069Z,3.07
2019-01-08T19:34:09.641Z,3.05
2019-01-08T19:36:38.702Z,3.02
2019-01-08T19:39:07.871Z,3.02
2019-01-08T19:41:36.956Z,3.02
2019-01-08T19:44:05.628Z,3.02
2019-01-08T19:46:34.634Z,3.01
2019-01-08T19:49:03.310Z,2.98
2019-01-08T19:51:32.168Z,3.05
2019-01-08T19:54:00.917Z,3.05
2019-01-08T19:56:29.912Z,3.09
2019-01-08T19:58:58.610Z,3.17
2019-01-08T20:01:27.272Z,3.18
2019-01-08T20:03:55.928Z,3.23
2019-01-08T20:06:24.662Z,3.26
2019-01-08T20:08:53.325Z,3.28
2019-01-08T20:11:22.013Z,3.27
2019-01-08T20:13:51.046Z,3.25
2019-01-08T20:16:19.709Z,3.27
2019-01-08T20:18:48.460Z,3.30
2019-01-08T20:21:17.317Z,3.32
2019-01-08T20:23:46.127Z,3.30
2019-01-08T20:26:14.860Z,3.30
2019-01-08T20:28:44.998Z,3.27
2019-01-08T20:31:13.904Z,3.25
2019-01-08T20:33:43.606Z,3.25
2019-01-08T20:36:12.529Z,3.26
2019-01-08T20:38:41.183Z,3.23
2019-01-08T20:41:10.833Z,3.26
2019-01-08T20:43:39.559Z,3.28
2019-01-08T20:46:08.351Z,3.29
2019-01-08T20:48:37.167Z,3.32
2019-01-08T20:51:05.935Z,3.37
2019-01-08T20:53:34.595Z,3.40
2019-01-08T20:56:03.340Z,3.43
2019-01-08T20:58:32.101Z,3.44
2019-01-08T21:01:00.903Z,3.44
2019-01-08T21:03:30.029Z,3.46
2019-01-08T21:05:58.798Z,3.48
2019-01-08T21:08:27.546Z,3.42
2019-01-08T21:10:56.254Z,3.42
2019-01-08T21:13:25.012Z,3.38
2019-01-08T21:15:53.671Z,3.34
2019-01-08T21:18:22.506Z,3.32
2019-01-08T21:20:51.662Z,3.31
2019-01-08T21:23:20.329Z,3.28
2019-01-08T21:25:49.020Z,3.24
2019-01-08T21:28:17.710Z,3.19
2019-01-08T21:30:46.790Z,3.19
2019-01-08T21:33:15.532Z,3.18
2019-01-08T21:35:44.280Z,3.19
2019-01-08T21:38:13.050Z,3.19
2019-01-08T21:40:42.020Z,3.18
2019-01-08T21:43:11.192Z,3.10
2019-01-08T21:45:39.867Z,3.16
2019-01-08T21:48:08.808Z,3.12
2019-01-08T21:50:37.551Z,3.01
2019-01-08T21:53:06.283Z,2.98
2019-01-08T21:55:35.413Z,2.97
2019-01-08T21:58:04.419Z,2.94
2019-01-08T22:00:33.183Z,2.94
2019-01-08T22:03:01.835Z,2.90
2019-01-08T22:05:30.503Z,2.88
2019-01-08T22:08:00.646Z,2.84
2019-01-08T22:10:29.379Z,2.85
2019-01-08T22:12:58.113Z,2.89
2019-01-08T22:15:26.834Z,2.89
2019-01-08T22:17:55.835Z,2.87
2019-01-08T22:20:24.499Z,2.88
2019-01-08T22:22:53.151Z,2.86
2019-01-08T22:25:21.810Z,2.84
2019-01-08T22:27:50.588Z,2.78
2019-01-08T22:30:19.868Z,2.76
2019-01-08T22:32:48.518Z,2.71
2019-01-08T22:35:17.240Z,2.67
2019-01-08T22:37:46.226Z,2.67
2019-01-08T22:40:14.960Z,2.60
2019-01-08T22:42:43.612Z,2.58
2019-01-08T22:45:12.332Z,2.59
2019-01-08T22:47:41.100Z,2.57
2019-01-08T22:50:09.809Z,2.52
2019-01-08T22:52:38.496Z,2.59
2019-01-08T22:55:07.213Z,2.56
2019-01-08T22:57:36.243Z,2.52
2019-01-08T23:00:09.536Z,2.53
2019-01-08T23:02:40.259Z,2.56
2019-01-08T23:05:10.983Z,2.50
2019-01-08T23:07:39.263Z,2.48
2019-01-08T23:10:07.919Z,2.44
2019-01-08T23:12:36.752Z,2.47
2019-01-08T23:15:05.658Z,2.48
2019-01-08T23:17:34.457Z,2.47
2019-01-08T23:20:03.294Z,2.42
2019-01-08T23:22:31.967Z,2.42
2019-01-08T23:25:00.660Z,2.40
2019-01-08T23:27:29.634Z,2.42
2019-01-08T23:29:58.294Z,2.40
2019-01-08T23:32:27.272Z,2.41
2019-01-08T23:34:55.980Z,2.40
2019-01-08T23:37:24.749Z,2.43
2019-01-08T23:39:53.496Z,2.46
2019-01-08T23:42:22.340Z,2.43
2019-01-08T23:44:50.977Z,2.44
2019-01-08T23:47:19.631Z,2.43
2019-01-08T23:49:48.335Z,2.42
2019-01-08T23:52:21.235Z,2.40
2019-01-08T23:54:49.921Z,2.41
2019-01-08T23:57:18.568Z,2.44
2019-01-08T23:59:47.208Z,2.43
